createdAt,value
2022-10-19T00:01:11.855Z,101012.93
2022-10-19T00:03:39.982Z,101010.52
2022-10-19T00:06:19.418Z,101007.80
2022-10-19T00:08:46.877Z,101009.91
2022-10-19T00:11:14.159Z,101013.68
2022-10-19T00:13:41.577Z,101017.94
2022-10-19T00:16:11.865Z,101017.57
2022-10-19T00:18:40.276Z,101018.96
2022-10-19T00:21:09.228Z,101022.65
2022-10-19T00:23:36.927Z,101024.11
2022-10-19T00:26:04.171Z,101019.77
2022-10-19T00:28:32.205Z,101022.92
2022-10-19T00:31:04.367Z,101020.72
2022-10-19T00:33:31.879Z,101023.02
2022-10-19T00:35:59.026Z,101025.15
2022-10-19T00:38:26.500Z,101021.75
2022-10-19T00:40:54.159Z,101019.98
2022-10-19T00:43:24.609Z,101021.20
2022-10-19T00:45:52.328Z,101021.02
2022-10-19T00:48:26.197Z,101017.04
2022-10-19T00:50:54.861Z,101017.05
2022-10-19T00:53:22.498Z,101018.39
2022-10-19T00:55:49.962Z,101019.39
2022-10-19T00:58:17.305Z,101015.95
2022-10-19T01:00:44.864Z,101020.45
2022-10-19T01:03:13.141Z,101014.53
2022-10-19T01:05:41.281Z,101010.98
2022-10-19T01:08:09.665Z,101010.77
2022-10-19T01:10:42.978Z,101005.38
2022-10-19T01:13:29.578Z,101003.88
2022-10-19T01:16:33.298Z,101009.33
2022-10-19T01:19:19.098Z,101005.67
2022-10-19T01:22:26.378Z,101007.43
2022-10-19T01:25:02.614Z,101008.23
2022-10-19T01:27:54.026Z,101007.96
2022-10-19T01:30:21.180Z,101005.66
2022-10-19T01:32:57.654Z,101000.45
2022-10-19T01:35:41.005Z,101000.13
2022-10-19T01:38:19.218Z,100999.33
2022-10-19T01:40:56.676Z,100998.41
2022-10-19T01:43:56.193Z,100997.91
2022-10-19T01:46:45.998Z,100992.75
2022-10-19T01:49:27.454Z,100987.02
2022-10-19T01:52:04.878Z,100987.95
2022-10-19T01:54:37.749Z,100988.69
2022-10-19T01:57:08.078Z,100989.91
2022-10-19T01:59:36.038Z,100986.29
2022-10-19T02:02:06.754Z,100979.08
2022-10-19T02:04:34.737Z,100977.95
2022-10-19T02:07:02.792Z,100973.60
2022-10-19T02:09:30.080Z,100974.83
2022-10-19T02:11:59.255Z,100976.04
2022-10-19T02:14:31.767Z,100983.36
2022-10-19T02:17:11.257Z,100985.35
2022-10-19T02:19:39.128Z,100984.71
2022-10-19T02:22:07.021Z,100981.21
2022-10-19T02:24:34.343Z,100979.29
2022-10-19T02:27:04.983Z,100978.08
2022-10-19T02:29:33.653Z,100977.50
2022-10-19T02:32:01.831Z,100982.45
2022-10-19T02:34:29.318Z,100983.56
2022-10-19T02:36:56.758Z,100983.05
2022-10-19T02:39:24.102Z,100976.14
2022-10-19T02:42:36.845Z,100977.77
2022-10-19T02:45:10.142Z,100972.39
2022-10-19T02:47:41.644Z,100977.98
2022-10-19T02:50:10.083Z,100982.65
2022-10-19T02:52:38.739Z,100980.14
2022-10-19T02:55:06.892Z,100986.64
2022-10-19T02:57:34.421Z,100985.73
2022-10-19T03:00:02.758Z,100984.77
2022-10-19T03:02:30.193Z,100981.92
2022-10-19T03:04:57.576Z,100979.62
2022-10-19T03:07:25.210Z,100981.54
2022-10-19T03:09:52.775Z,100980.79
2022-10-19T03:12:19.921Z,100979.33
2022-10-19T03:14:47.184Z,100977.35
2022-10-19T03:17:14.525Z,100976.81
2022-10-19T03:19:41.899Z,100978.94
2022-10-19T03:22:09.030Z,100977.17
2022-10-19T03:24:36.519Z,100976.41
2022-10-19T03:27:03.950Z,100974.95
2022-10-19T03:29:31.518Z,100975.05
2022-10-19T03:31:58.975Z,100972.14
2022-10-19T03:34:26.235Z,100973.95
2022-10-19T03:36:53.778Z,100973.27
2022-10-19T03:39:21.225Z,100975.33
2022-10-19T03:41:49.039Z,100975.11
2022-10-19T03:44:16.556Z,100974.37
2022-10-19T03:46:44.004Z,100978.11
2022-10-19T03:49:12.415Z,100971.68
2022-10-19T03:51:39.883Z,100970.23
2022-10-19T03:54:09.557Z,100965.39
2022-10-19T03:56:37.135Z,100965.98
2022-10-19T03:59:06.151Z,100965.27
2022-10-19T04:01:37.875Z,100962.08
2022-10-19T04:04:07.672Z,100961.95
2022-10-19T04:06:36.973Z,100966.07
2022-10-19T04:09:05.562Z,100965.69
2022-10-19T04:11:34.588Z,100968.92
2022-10-19T04:14:02.270Z,100968.53
2022-10-19T04:16:32.650Z,100967.83
2022-10-19T04:18:59.998Z,100970.70
2022-10-19T04:21:29.970Z,100967.95
2022-10-19T04:24:02.411Z,100973.66
2022-10-19T04:26:31.075Z,100975.89
2022-10-19T04:28:59.617Z,100979.47
2022-10-19T04:31:28.036Z,100980.94
2022-10-19T04:33:56.138Z,100978.58
2022-10-19T04:36:23.875Z,100979.11
2022-10-19T04:38:51.339Z,100978.09
2022-10-19T04:41:20.517Z,100986.23
2022-10-19T04:43:49.016Z,100990.03
2022-10-19T04:46:18.544Z,100991.80
2022-10-19T04:48:47.572Z,100990.41
2022-10-19T04:51:15.664Z,100988.80
2022-10-19T04:53:44.087Z,100989.86
2022-10-19T04:56:20.377Z,100987.35
2022-10-19T04:58:48.374Z,100989.55
2022-10-19T05:01:21.169Z,100984.55
2022-10-19T05:03:49.509Z,100979.67
2022-10-19T05:06:16.785Z,100982.00
2022-10-19T05:08:43.949Z,100979.53
2022-10-19T05:11:14.442Z,100975.48
2022-10-19T05:13:42.863Z,100981.02
2022-10-19T05:16:13.657Z,100976.80
2022-10-19T05:18:41.755Z,100980.27
2022-10-19T05:21:11.442Z,100981.73
2022-10-19T05:23:39.667Z,100991.46
2022-10-19T05:26:16.928Z,100989.23
2022-10-19T05:28:48.390Z,100987.88
2022-10-19T05:31:18.517Z,100982.46
2022-10-19T05:33:47.171Z,100985.43
2022-10-19T05:36:17.952Z,100987.88
2022-10-19T05:38:46.914Z,100989.26
2022-10-19T05:41:14.676Z,100993.27
2022-10-19T05:43:42.858Z,100992.99
2022-10-19T05:46:12.773Z,100996.53
2022-10-19T05:48:40.850Z,100994.17
2022-10-19T05:51:11.951Z,100998.30
2022-10-19T05:56:08.439Z,100999.19
2022-10-19T05:58:36.299Z,101004.25
2022-10-19T06:01:04.578Z,101007.70
2022-10-19T06:03:32.129Z,101006.85
2022-10-19T06:06:06.375Z,101007.75
2022-10-19T06:08:34.585Z,101018.20
2022-10-19T06:11:13.480Z,101019.55
2022-10-19T06:13:42.737Z,101023.65
2022-10-19T06:16:12.150Z,101025.43
2022-10-19T06:18:40.331Z,101020.90
2022-10-19T06:21:12.284Z,101022.70
2022-10-19T06:23:39.641Z,101021.95
2022-10-19T06:26:11.078Z,101025.23
2022-10-19T06:28:39.675Z,101022.86
2022-10-19T06:31:09.201Z,101032.23
2022-10-19T06:33:37.716Z,101035.95
2022-10-19T06:36:13.429Z,101038.67
2022-10-19T06:38:41.567Z,101041.15
2022-10-19T06:41:09.825Z,101045.52
2022-10-19T06:43:37.078Z,101047.04
2022-10-19T06:46:09.954Z,101043.11
2022-10-19T06:48:37.659Z,101046.14
2022-10-19T06:51:08.072Z,101045.02
2022-10-19T06:53:36.453Z,101044.36
2022-10-19T06:56:06.107Z,101047.15
2022-10-19T06:58:37.927Z,101043.80
2022-10-19T07:01:08.097Z,101047.27
2022-10-19T07:03:35.942Z,101049.95
2022-10-19T07:06:06.176Z,101046.59
2022-10-19T07:08:36.158Z,101050.00
2022-10-19T07:11:06.867Z,101051.25
2022-10-19T07:13:34.843Z,101054.21
2022-10-19T07:16:07.173Z,101058.20
2022-10-19T07:18:36.438Z,101056.77
2022-10-19T07:21:06.938Z,101057.92
2022-10-19T07:23:35.536Z,101062.22
2022-10-19T07:26:15.200Z,101062.23
2022-10-19T07:28:44.727Z,101065.85
2022-10-19T07:31:14.144Z,101069.09
2022-10-19T07:33:42.270Z,101069.70
2022-10-19T07:36:11.569Z,101072.33
2022-10-19T07:38:39.020Z,101078.27
2022-10-19T07:41:07.564Z,101079.35
2022-10-19T07:43:35.999Z,101075.29
2022-10-19T07:46:09.166Z,101076.98
2022-10-19T07:48:36.923Z,101081.42
2022-10-19T07:51:07.825Z,101082.60
2022-10-19T07:53:35.966Z,101082.17
2022-10-19T07:56:07.790Z,101082.02
2022-10-19T07:58:36.699Z,101084.13
2022-10-19T08:01:16.317Z,101084.31
2022-10-19T08:06:32.443Z,101089.45
2022-10-19T08:09:00.198Z,101087.02
2022-10-19T08:11:31.185Z,101089.95
2022-10-19T08:14:03.308Z,101084.36
2022-10-19T08:16:42.540Z,101089.54
2022-10-19T08:19:12.241Z,101088.35
2022-10-19T08:21:42.173Z,101083.63
2022-10-19T08:24:10.546Z,101089.66
2022-10-19T08:26:39.456Z,101087.38
2022-10-19T08:29:14.770Z,101090.61
2022-10-19T08:31:43.523Z,101088.37
2022-10-19T08:34:11.748Z,101090.20
2022-10-19T08:36:39.238Z,101089.09
2022-10-19T08:39:09.098Z,101089.70
2022-10-19T08:42:05.368Z,101081.48
2022-10-19T08:44:35.977Z,101082.94
2022-10-19T08:47:39.173Z,101087.08
2022-10-19T08:50:23.938Z,101084.40
2022-10-19T08:53:42.488Z,101085.86
2022-10-19T08:56:12.374Z,101079.61
2022-10-19T08:58:58.010Z,101078.77
2022-10-19T09:01:37.923Z,101083.10
2022-10-19T09:04:08.250Z,101081.07
2022-10-19T09:06:45.544Z,101085.46
2022-10-19T09:09:19.669Z,101088.86
2022-10-19T09:11:49.980Z,101088.60
2022-10-19T09:14:20.300Z,101094.73
2022-10-19T09:16:49.705Z,101093.98
2022-10-19T09:19:26.420Z,101095.59
2022-10-19T09:21:58.223Z,101095.81
2022-10-19T09:24:51.596Z,101091.36
2022-10-19T09:27:47.019Z,101091.48
2022-10-19T09:30:19.442Z,101092.40
2022-10-19T09:32:48.233Z,101103.42
2022-10-19T09:35:22.231Z,101102.58
2022-10-19T09:37:50.353Z,101112.15
2022-10-19T09:40:24.068Z,101107.69
2022-10-19T09:42:57.434Z,101113.66
2022-10-19T09:45:43.851Z,101128.38
2022-10-19T09:48:34.251Z,101116.70
2022-10-19T09:51:03.403Z,101114.98
2022-10-19T09:53:34.322Z,101118.70
2022-10-19T09:56:08.030Z,101118.00
2022-10-19T09:58:36.351Z,101128.33
2022-10-19T10:01:04.215Z,101128.44
2022-10-19T10:03:39.837Z,101127.09
2022-10-19T10:06:15.884Z,101129.02
2022-10-19T10:08:58.166Z,101134.20
2022-10-19T10:11:29.907Z,101128.91
2022-10-19T10:14:02.256Z,101130.80
2022-10-19T10:16:34.221Z,101131.71
2022-10-19T10:19:04.560Z,101130.96
2022-10-19T10:21:35.980Z,101134.52
2022-10-19T10:24:14.466Z,101124.29
2022-10-19T10:26:55.094Z,101130.05
2022-10-19T10:29:31.472Z,101126.02
2022-10-19T10:32:18.977Z,101123.27
2022-10-19T10:35:01.004Z,101117.80
2022-10-19T10:37:37.721Z,101114.71
2022-10-19T10:40:06.645Z,101108.69
2022-10-19T10:42:54.150Z,101107.02
2022-10-19T10:45:31.680Z,101110.17
2022-10-19T10:48:21.346Z,101114.73
2022-10-19T10:50:49.197Z,101108.42
2022-10-19T10:53:33.765Z,101113.75
2022-10-19T10:56:02.555Z,101112.36
2022-10-19T10:58:37.952Z,101110.38
2022-10-19T11:01:08.839Z,101108.87
2022-10-19T11:03:36.790Z,101112.36
2022-10-19T11:06:04.249Z,101109.39
2022-10-19T11:09:08.134Z,101106.45
2022-10-19T11:11:39.503Z,101110.82
2022-10-19T11:14:37.009Z,101109.77
2022-10-19T11:17:07.697Z,101108.98
2022-10-19T11:19:42.667Z,101109.58
2022-10-19T11:22:13.498Z,101111.83
2022-10-19T11:24:46.398Z,101115.06
2022-10-19T11:27:28.143Z,101115.60
2022-10-19T11:30:20.238Z,101109.46
2022-10-19T11:32:47.528Z,101109.23
2022-10-19T11:35:45.810Z,101107.36
2022-10-19T11:38:34.885Z,101108.58
2022-10-19T11:42:00.498Z,101108.86
2022-10-19T11:44:33.378Z,101105.86
2022-10-19T11:47:18.975Z,101109.99
2022-10-19T11:50:11.243Z,101112.80
2022-10-19T11:53:08.258Z,101113.12
2022-10-19T11:55:42.677Z,101108.60
2022-10-19T11:58:49.112Z,101113.92
2022-10-19T12:01:29.186Z,101108.92
2022-10-19T12:04:14.783Z,101113.34
2022-10-19T12:06:51.456Z,101113.54
2022-10-19T12:09:53.664Z,101110.48
2022-10-19T12:12:43.515Z,101111.45
2022-10-19T12:15:11.797Z,101113.91
2022-10-19T12:17:41.303Z,101115.21
2022-10-19T12:20:40.195Z,101110.37
2022-10-19T12:23:31.757Z,101116.35
2022-10-19T12:26:06.798Z,101112.27
2022-10-19T12:28:37.744Z,101108.80
2022-10-19T12:31:06.148Z,101109.94
2022-10-19T12:33:48.044Z,101115.42
2022-10-19T12:36:34.011Z,101119.52
2022-10-19T12:39:29.816Z,101114.28
2022-10-19T12:42:12.479Z,101114.92
2022-10-19T12:45:09.139Z,101115.09
2022-10-19T12:47:38.315Z,101117.98
2022-10-19T12:50:06.212Z,101116.80
2022-10-19T12:52:43.183Z,101117.33
2022-10-19T12:55:29.256Z,101115.51
2022-10-19T12:58:02.749Z,101116.96
2022-10-19T13:00:34.666Z,101117.29
2022-10-19T13:03:15.935Z,101112.86
2022-10-19T13:05:43.725Z,101116.42
2022-10-19T13:08:27.394Z,101117.07
2022-10-19T13:11:17.420Z,101113.73
2022-10-19T13:14:28.758Z,101115.34
2022-10-19T13:17:03.697Z,101116.83
2022-10-19T13:19:31.475Z,101122.13
2022-10-19T13:22:02.155Z,101121.16
2022-10-19T13:24:37.514Z,101122.77
2022-10-19T13:27:06.148Z,101124.85
2022-10-19T13:29:39.790Z,101120.65
2022-10-19T13:32:33.383Z,101116.77
2022-10-19T13:35:36.726Z,101115.38
2022-10-19T13:38:12.086Z,101116.65
2022-10-19T13:40:48.260Z,101123.91
2022-10-19T13:43:22.724Z,101123.20
2022-10-19T13:46:02.178Z,101120.89
2022-10-19T13:48:51.007Z,101121.20
2022-10-19T13:51:40.114Z,101122.11
2022-10-19T13:54:38.037Z,101119.42
2022-10-19T13:57:24.956Z,101120.65
2022-10-19T13:59:52.658Z,101117.86
2022-10-19T14:02:26.771Z,101113.30
2022-10-19T14:04:57.168Z,101109.55
2022-10-19T14:07:32.932Z,101104.92
2022-10-19T14:10:08.276Z,101099.49
2022-10-19T14:12:38.661Z,101099.56
2022-10-19T14:15:31.166Z,101096.33
2022-10-19T14:18:02.377Z,101095.75
2022-10-19T14:20:35.169Z,101094.02
2022-10-19T14:23:24.368Z,101094.38
2022-10-19T14:25:54.069Z,101087.83
2022-10-19T14:28:21.938Z,101088.08
2022-10-19T14:31:07.492Z,101087.26
2022-10-19T14:33:38.502Z,101086.48
2022-10-19T14:36:17.137Z,101088.46
2022-10-19T14:38:44.703Z,101088.38
2022-10-19T14:44:30.950Z,101097.48
2022-10-19T14:47:01.646Z,101099.80
2022-10-19T14:49:29.217Z,101102.73
2022-10-19T14:52:00.052Z,101103.29
2022-10-19T14:54:40.964Z,101102.25
2022-10-19T14:57:19.520Z,101106.77
2022-10-19T14:59:59.040Z,101103.77
2022-10-19T15:02:31.328Z,101104.70
2022-10-19T15:05:02.720Z,101103.36
2022-10-19T15:07:41.392Z,101106.69
2022-10-19T15:10:29.338Z,101110.39
2022-10-19T15:13:04.709Z,101107.71
2022-10-19T15:15:34.082Z,101103.52
2022-10-19T15:18:01.599Z,101104.74
2022-10-19T15:20:44.050Z,101103.66
2022-10-19T15:23:45.400Z,101099.20
2022-10-19T15:26:25.779Z,101099.29
2022-10-19T15:28:55.856Z,101097.23
2022-10-19T15:31:28.711Z,101099.85
2022-10-19T15:33:59.776Z,101100.06
2022-10-19T15:36:29.589Z,101103.71
2022-10-19T15:39:25.045Z,101097.20
2022-10-19T15:41:55.478Z,101097.06
2022-10-19T15:44:41.546Z,101097.69
2022-10-19T15:47:19.865Z,101099.38
2022-10-19T15:50:01.883Z,101097.69
2022-10-19T15:52:34.461Z,101096.96
2022-10-19T15:55:02.625Z,101098.39
2022-10-19T15:57:39.926Z,101101.42
2022-10-19T16:00:14.477Z,101099.45
2022-10-19T16:02:42.187Z,101100.77
2022-10-19T16:05:10.278Z,101104.34
2022-10-19T16:07:39.890Z,101103.89
2022-10-19T16:10:08.635Z,101106.54
2022-10-19T16:12:36.417Z,101113.61
2022-10-19T16:15:05.083Z,101114.17
2022-10-19T16:17:33.349Z,101113.45
2022-10-19T16:20:01.741Z,101115.14
2022-10-19T16:22:29.650Z,101115.54
2022-10-19T16:24:57.684Z,101114.13
2022-10-19T19:43:14.710Z,101252.27
2022-10-19T19:47:53.074Z,101258.09
2022-10-19T19:50:24.257Z,101256.73
2022-10-19T19:52:53.716Z,101257.62
2022-10-19T19:55:21.046Z,101260.77
2022-10-19T19:57:51.290Z,101263.21
2022-10-19T20:00:19.993Z,101264.65
2022-10-19T20:02:54.857Z,101268.15
2022-10-19T20:05:23.289Z,101268.87
2022-10-19T20:07:51.470Z,101271.23
2022-10-19T20:10:20.092Z,101272.88
2022-10-19T20:12:49.700Z,101266.25
2022-10-19T20:15:19.569Z,101266.64
2022-10-19T20:17:47.962Z,101266.15
2022-10-19T20:20:19.114Z,101268.30
2022-10-19T20:22:48.496Z,101268.04
2022-10-19T20:25:16.909Z,101267.29
2022-10-19T20:27:44.648Z,101267.25
2022-10-19T20:30:14.245Z,101265.60
2022-10-19T20:32:42.615Z,101264.47
2022-10-19T20:35:10.491Z,101262.42
2022-10-19T20:37:37.826Z,101266.21
2022-10-19T20:40:08.716Z,101266.04
2022-10-19T20:42:37.837Z,101265.98
2022-10-19T20:45:06.834Z,101271.50
2022-10-19T20:47:34.911Z,101272.91
2022-10-19T20:52:33.281Z,101277.85
2022-10-19T20:55:01.006Z,101280.52
2022-10-19T20:57:33.894Z,101284.75
2022-10-19T21:00:06.755Z,101287.13
2022-10-19T21:02:34.882Z,101286.25
2022-10-19T21:05:04.056Z,101285.11
2022-10-19T21:07:31.487Z,101287.98
2022-10-19T21:09:58.948Z,101284.75
2022-10-19T21:12:27.288Z,101286.10
2022-10-19T21:14:54.979Z,101290.47
2022-10-19T21:17:22.570Z,101286.23
2022-10-19T21:19:50.102Z,101289.89
2022-10-19T21:22:17.470Z,101285.80
2022-10-19T21:24:45.330Z,101287.02
2022-10-19T21:27:14.001Z,101288.80
2022-10-19T21:29:41.490Z,101288.36
2022-10-19T21:32:09.851Z,101286.11
2022-10-19T21:34:37.377Z,101288.02
2022-10-19T21:37:05.690Z,101288.41
2022-10-19T21:39:33.477Z,101292.95
2022-10-19T21:42:01.013Z,101298.54
2022-10-19T21:44:28.405Z,101295.55
2022-10-19T21:46:55.617Z,101298.11
2022-10-19T21:49:22.922Z,101296.40
2022-10-19T21:51:52.538Z,101299.27
2022-10-19T21:54:29.492Z,101299.15
2022-10-19T21:56:59.047Z,101301.16
2022-10-19T21:59:26.542Z,101298.35
2022-10-19T22:01:56.948Z,101302.20
2022-10-19T22:07:22.233Z,101300.73
2022-10-19T22:09:49.523Z,101301.09
2022-10-19T22:12:18.020Z,101301.46
2022-10-19T22:14:47.096Z,101299.30
2022-10-19T22:17:16.311Z,101305.38
2022-10-19T22:19:44.272Z,101304.94
2022-10-19T22:22:11.828Z,101303.80
2022-10-19T22:24:39.478Z,101305.05
2022-10-19T22:27:06.931Z,101309.60
2022-10-19T22:29:34.286Z,101314.77
2022-10-19T22:32:01.859Z,101314.40
2022-10-19T22:34:29.319Z,101312.10
2022-10-19T22:36:56.818Z,101315.85
2022-10-19T22:39:26.991Z,101318.56
2022-10-19T22:42:04.752Z,101321.56
2022-10-19T22:44:32.622Z,101318.49
2022-10-19T22:47:00.096Z,101322.05
2022-10-19T22:49:30.453Z,101322.77
2022-10-19T22:51:57.574Z,101320.16
2022-10-19T22:54:25.149Z,101318.55
2022-10-19T22:56:53.928Z,101317.83
2022-10-19T22:59:21.273Z,101314.63
2022-10-19T23:01:48.492Z,101320.14
2022-10-19T23:04:16.090Z,101318.96
2022-10-19T23:06:43.450Z,101317.08
2022-10-19T23:09:11.030Z,101324.55
2022-10-19T23:11:38.370Z,101322.86
2022-10-19T23:14:05.611Z,101326.02
2022-10-19T23:16:32.872Z,101323.80
2022-10-19T23:19:00.428Z,101324.65
2022-10-19T23:21:28.290Z,101321.19
2022-10-19T23:23:55.641Z,101319.79
2022-10-19T23:26:24.122Z,101320.97
2022-10-19T23:28:51.890Z,101320.53
2022-10-19T23:31:27.032Z,101318.45
2022-10-19T23:33:55.233Z,101318.34
2022-10-19T23:36:27.610Z,101317.14
2022-10-19T23:38:55.890Z,101318.95
2022-10-19T23:41:24.143Z,101316.14
2022-10-19T23:43:51.894Z,101315.74
2022-10-19T23:46:19.071Z,101313.09
2022-10-19T23:48:47.750Z,101313.80
2022-10-19T23:51:17.331Z,101310.16
2022-10-19T23:53:46.193Z,101308.61
2022-10-19T23:56:16.770Z,101306.23
2022-10-19T23:58:44.674Z,101310.30
